Terminal Aerodrome Forecast
Issued by NWS

Home | Current Version | Previous Version | Graphics & Text | Print | Product List | Glossary On
Versions: 1 2 3 4 5 6 7 8 9 10 11 12 13 14 15 16 17 18 19 20 21 22 23 24 25 26 27 28 29 30 31 32 33 34 35
260
FTUS43 KGRB 201720
TAFRHI
TAF
KRHI 201720Z 2018/2118 13012G19KT P6SM OVC250 WS020/17040KT
     FM202100 14012G20KT 6SM SHRA OVC060 WS020/20045KT
     FM210300 18008KT 4SM SHRA BR OVC003 WS020/22045KT
     FM210600 22009KT 3SM BR BKN005 PROB30 2107/2109 2SM -SHRA BR
      OVC003
     FM210900 24006KT 3SM BR BKN004
     FM211300 29005KT 5SM BR BKN007
     FM211600 27008G13KT P6SM SCT250=

USA.gov is the U.S. government's official web portal to all federal, state and local government web resources and services.